createdAt,value
2018-04-06T00:00:40.348Z,70.00
2018-04-06T00:03:08.207Z,70.00
2018-04-06T00:05:36.069Z,70.40
2018-04-06T00:08:04.447Z,71.20
2018-04-06T00:10:33.068Z,69.30
2018-04-06T00:13:00.857Z,69.30
2018-04-06T00:15:29.571Z,68.80
2018-04-06T00:17:57.528Z,68.80
2018-04-06T00:20:25.866Z,66.00
2018-04-06T00:22:53.727Z,66.20
2018-04-06T00:25:21.687Z,68.40
2018-04-06T00:27:49.466Z,66.80
2018-04-06T00:30:18.508Z,69.50
2018-04-06T00:32:46.406Z,69.50
2018-04-06T00:35:14.226Z,67.80
2018-04-06T00:37:42.487Z,66.90
2018-04-06T00:40:11.390Z,67.40
2018-04-06T00:42:39.287Z,67.30
2018-04-06T00:45:07.210Z,72.20
2018-04-06T00:47:35.059Z,69.50
2018-04-06T00:50:02.967Z,72.70
2018-04-06T00:52:30.907Z,73.10
2018-04-06T00:54:59.206Z,72.60
2018-04-06T00:57:27.067Z,70.90
2018-04-06T00:59:55.167Z,69.80
2018-04-06T01:02:23.007Z,70.10
2018-04-06T01:04:51.127Z,69.40
2018-04-06T01:07:18.966Z,69.20
2018-04-06T01:09:46.848Z,66.70
2018-04-06T01:12:14.806Z,64.20
2018-04-06T01:14:42.626Z,62.90
2018-04-06T01:17:10.447Z,61.30
2018-04-06T01:19:38.526Z,60.60
2018-04-06T01:22:06.507Z,60.40
2018-04-06T01:24:34.407Z,60.60
2018-04-06T01:27:02.366Z,60.00
2018-04-06T01:29:31.749Z,60.40
2018-04-06T01:32:01.047Z,59.70
2018-04-06T01:34:28.947Z,59.50
2018-04-06T01:36:56.974Z,60.20
2018-04-06T01:39:24.809Z,59.60
2018-04-06T01:41:52.668Z,59.20
2018-04-06T01:44:20.506Z,59.40
2018-04-06T01:46:48.607Z,60.50
2018-04-06T01:49:16.566Z,59.40
2018-04-06T01:51:44.593Z,58.90
2018-04-06T01:54:12.693Z,58.50
2018-04-06T01:56:40.567Z,58.30
2018-04-06T01:59:08.467Z,58.80
2018-04-06T02:01:36.289Z,58.50
2018-04-06T02:04:04.169Z,57.80
2018-04-06T02:06:32.369Z,60.00
2018-04-06T02:09:00.229Z,58.70
2018-04-06T02:11:29.447Z,58.30
2018-04-06T02:13:57.268Z,57.60
2018-04-06T02:16:25.245Z,58.30
2018-04-06T02:18:53.286Z,58.10
2018-04-06T02:21:21.188Z,57.80
2018-04-06T02:23:49.106Z,57.70
2018-04-06T02:26:16.926Z,56.10
2018-04-06T02:28:44.846Z,56.40
2018-04-06T02:31:13.066Z,55.10
2018-04-06T02:33:41.025Z,55.60
2018-04-06T02:36:08.846Z,56.10
2018-04-06T02:38:36.726Z,56.30
2018-04-06T02:41:05.008Z,57.00
2018-04-06T02:43:32.847Z,56.40
2018-04-06T02:46:00.787Z,57.10
2018-04-06T02:48:28.773Z,55.80
2018-04-06T02:50:57.327Z,55.60
2018-04-06T02:53:25.226Z,55.60
2018-04-06T02:55:53.187Z,55.70
2018-04-06T02:58:21.087Z,55.70
2018-04-06T03:00:49.348Z,57.10
2018-04-06T03:03:18.228Z,56.20
2018-04-06T03:05:46.488Z,56.20
2018-04-06T03:08:14.688Z,55.70
2018-04-06T03:10:42.568Z,55.50
2018-04-06T03:13:11.009Z,55.40
2018-04-06T03:15:38.989Z,55.90
2018-04-06T03:18:07.290Z,55.90
2018-04-06T03:20:35.528Z,56.10
2018-04-06T03:23:03.428Z,56.00
2018-04-06T03:25:31.429Z,56.00
2018-04-06T03:28:00.288Z,55.60
2018-04-06T03:30:28.148Z,55.50
2018-04-06T03:32:55.968Z,55.60
2018-04-06T03:35:24.348Z,55.80
2018-04-06T03:37:52.428Z,56.10
2018-04-06T03:40:20.214Z,55.90
2018-04-06T03:42:48.288Z,55.50
2018-04-06T03:45:16.388Z,55.90
2018-04-06T03:47:44.308Z,55.60
2018-04-06T03:50:12.312Z,56.00
2018-04-06T03:52:40.312Z,56.50
2018-04-06T03:55:08.228Z,55.50
2018-04-06T03:57:36.387Z,56.50
2018-04-06T04:00:04.328Z,55.50
2018-04-06T04:02:32.050Z,55.00
2018-04-06T04:05:00.030Z,55.40
2018-04-06T04:07:28.250Z,55.60
2018-04-06T04:09:56.872Z,55.20
2018-04-06T04:12:24.810Z,55.20
2018-04-06T04:14:52.568Z,56.00
2018-04-06T04:17:20.294Z,55.40
2018-04-06T04:19:47.954Z,55.40
2018-04-06T04:22:15.874Z,54.80
2018-04-06T04:24:44.055Z,53.90
2018-04-06T04:27:11.915Z,53.70
2018-04-06T04:29:39.855Z,54.40
2018-04-06T04:32:07.696Z,54.50
2018-04-06T04:34:35.775Z,54.70
2018-04-06T04:37:03.516Z,54.80
2018-04-06T04:39:31.503Z,54.80
2018-04-06T04:41:59.515Z,54.50
2018-04-06T04:44:27.296Z,54.80
2018-04-06T04:46:56.315Z,57.20
2018-04-06T04:49:24.275Z,57.20
2018-04-06T04:51:52.130Z,55.50
2018-04-06T04:54:20.029Z,55.80
2018-04-06T04:56:47.969Z,54.10
2018-04-06T04:59:15.818Z,53.60
2018-04-06T05:01:43.658Z,55.80
2018-04-06T05:04:11.492Z,53.70
2018-04-06T05:06:39.660Z,53.50
2018-04-06T05:09:07.773Z,53.00
2018-04-06T05:11:35.527Z,52.60
2018-04-06T05:14:03.771Z,53.70
2018-04-06T05:16:36.037Z,52.50
2018-04-06T05:19:04.292Z,50.90
2018-04-06T05:21:32.131Z,50.70
2018-04-06T05:24:00.613Z,50.60
2018-04-06T05:26:28.811Z,50.30
2018-04-06T05:28:57.351Z,47.60
2018-04-06T05:31:25.353Z,48.40
2018-04-06T05:33:53.191Z,49.10
2018-04-06T05:38:52.870Z,46.60
2018-04-06T05:41:20.811Z,47.00
2018-04-06T05:43:48.748Z,45.20
2018-04-06T05:46:16.487Z,45.70
2018-04-06T05:48:44.366Z,46.00
2018-04-06T05:51:12.326Z,47.00
2018-04-06T05:53:40.308Z,47.30
2018-04-06T05:56:09.186Z,47.50
2018-04-06T05:58:37.139Z,47.50
2018-04-06T06:01:06.491Z,43.60
2018-04-06T06:03:34.350Z,42.30
2018-04-06T06:06:03.169Z,44.60
2018-04-06T06:08:31.148Z,44.60
2018-04-06T06:10:58.989Z,44.00
2018-04-06T06:13:26.949Z,40.40
2018-04-06T06:15:55.608Z,38.60
2018-04-06T06:18:23.447Z,38.60
2018-04-06T06:20:51.328Z,41.70
2018-04-06T06:23:19.083Z,40.40
2018-04-06T06:25:46.908Z,38.10
2018-04-06T06:28:14.768Z,39.40
2018-04-06T06:30:42.634Z,38.70
2018-04-06T06:33:11.227Z,38.10
2018-04-06T06:35:39.080Z,38.10
2018-04-06T06:38:06.867Z,38.50
2018-04-06T06:40:34.727Z,39.80
2018-04-06T06:43:02.570Z,39.30
2018-04-06T06:45:30.367Z,39.20
2018-04-06T06:47:58.205Z,37.80
2018-04-06T06:50:26.006Z,37.20
2018-04-06T06:52:54.646Z,31.50
2018-04-06T06:55:22.508Z,31.50
2018-04-06T06:57:50.413Z,31.80
2018-04-06T07:00:18.082Z,33.70
2018-04-06T07:02:46.048Z,32.30
2018-04-06T07:05:13.925Z,33.00
2018-04-06T07:07:41.694Z,34.30
2018-04-06T07:10:10.267Z,39.20
2018-04-06T07:12:38.153Z,39.10
2018-04-06T07:15:05.948Z,39.30
2018-04-06T07:17:33.726Z,37.70
2018-04-06T07:20:01.548Z,38.90
2018-04-06T07:22:29.625Z,39.10
2018-04-06T07:24:57.386Z,39.30
2018-04-06T07:27:25.225Z,39.70
2018-04-06T07:29:53.006Z,38.70
2018-04-06T07:32:20.890Z,34.20
2018-04-06T07:34:48.706Z,35.20
2018-04-06T07:37:16.526Z,36.10
2018-04-06T07:39:44.389Z,33.90
2018-04-06T07:42:12.286Z,35.00
2018-04-06T07:44:40.087Z,34.30
2018-04-06T07:47:07.876Z,33.80
2018-04-06T07:49:35.892Z,34.20
2018-04-06T07:52:03.805Z,35.70
2018-04-06T07:54:31.709Z,34.70
2018-04-06T07:56:59.549Z,32.30
2018-04-06T07:59:27.288Z,31.30
2018-04-06T08:01:55.167Z,33.70
2018-04-06T08:04:23.005Z,34.10
2018-04-06T08:06:50.825Z,32.70
2018-04-06T08:09:18.546Z,32.90
2018-04-06T08:11:46.488Z,30.40
2018-04-06T08:14:14.486Z,32.40
2018-04-06T08:16:42.309Z,32.90
2018-04-06T08:19:10.048Z,33.20
2018-04-06T08:21:37.986Z,33.20
2018-04-06T08:24:05.815Z,32.20
2018-04-06T08:26:33.606Z,31.10
2018-04-06T08:29:01.446Z,31.90
2018-04-06T08:31:29.189Z,35.40
2018-04-06T08:33:57.726Z,34.00
2018-04-06T08:36:25.566Z,34.00
2018-04-06T08:38:53.310Z,32.80
2018-04-06T08:41:21.126Z,34.50
2018-04-06T08:43:48.954Z,33.30
2018-04-06T08:46:16.692Z,30.70
2018-04-06T08:48:44.592Z,33.50
2018-04-06T08:51:12.407Z,35.10
2018-04-06T08:53:40.946Z,33.30
2018-04-06T08:56:09.565Z,34.00
2018-04-06T08:58:37.526Z,34.00
2018-04-06T09:01:05.326Z,34.80
2018-04-06T09:03:33.334Z,37.00
2018-04-06T09:06:01.256Z,34.80
2018-04-06T09:08:29.143Z,31.80
2018-04-06T09:10:57.039Z,33.00
2018-04-06T09:13:24.929Z,33.10
2018-04-06T09:15:52.847Z,33.10
2018-04-06T09:18:20.986Z,32.50
2018-04-06T09:20:49.266Z,32.60
2018-04-06T09:23:17.085Z,32.30
2018-04-06T09:25:44.970Z,33.10
2018-04-06T09:28:12.786Z,33.60
2018-04-06T09:30:41.366Z,34.80
2018-04-06T09:33:10.366Z,38.50
2018-04-06T09:35:38.287Z,38.90
2018-04-06T09:38:06.088Z,35.50
2018-04-06T09:40:34.110Z,31.70
2018-04-06T09:43:02.026Z,30.90
2018-04-06T09:45:30.166Z,33.70
2018-04-06T09:47:58.174Z,33.80
2018-04-06T09:50:26.423Z,34.80
2018-04-06T09:52:54.266Z,32.90
2018-04-06T09:55:22.146Z,31.90
2018-04-06T09:57:50.325Z,31.80
2018-04-06T10:00:24.479Z,34.40
2018-04-06T10:02:52.562Z,37.50
2018-04-06T10:05:20.492Z,34.00
2018-04-06T10:07:48.227Z,36.80
2018-04-06T10:10:16.126Z,31.70
2018-04-06T10:12:43.928Z,31.60
2018-04-06T10:17:43.848Z,34.80
2018-04-06T10:20:11.769Z,34.60
2018-04-06T10:22:40.286Z,33.50
2018-04-06T10:25:08.968Z,31.30
2018-04-06T10:27:36.928Z,31.30
2018-04-06T10:30:04.789Z,31.00
2018-04-06T10:32:32.607Z,32.50
2018-04-06T10:35:00.768Z,31.90
2018-04-06T10:37:28.668Z,33.80
2018-04-06T10:39:56.447Z,34.00
2018-04-06T10:42:24.406Z,35.30
2018-04-06T10:44:52.207Z,36.60
2018-04-06T10:47:20.208Z,33.90
2018-04-06T10:49:48.707Z,33.50
2018-04-06T10:52:16.609Z,34.10
2018-04-06T10:54:44.451Z,35.70
2018-04-06T10:57:12.329Z,36.50
2018-04-06T10:59:40.127Z,33.10
2018-04-06T11:02:08.046Z,34.40
2018-04-06T11:04:36.747Z,34.40
2018-04-06T11:07:04.606Z,34.40
2018-04-06T11:09:32.629Z,34.20
2018-04-06T11:12:00.367Z,37.70
2018-04-06T11:14:28.306Z,36.20
2018-04-06T11:16:56.608Z,36.20
2018-04-06T11:19:24.466Z,36.00
2018-04-06T11:21:52.349Z,37.40
2018-04-06T11:24:20.206Z,36.30
2018-04-06T11:26:48.067Z,33.60
2018-04-06T11:29:15.887Z,35.20
2018-04-06T11:31:43.848Z,34.70
2018-04-06T11:34:11.827Z,32.10
2018-04-06T11:36:39.747Z,36.30
2018-04-06T11:39:07.654Z,34.50
2018-04-06T11:41:35.586Z,35.30
2018-04-06T11:44:03.529Z,36.00
2018-04-06T11:46:32.146Z,37.10
2018-04-06T11:49:00.150Z,37.00
2018-04-06T11:51:27.966Z,38.30
2018-04-06T11:53:55.805Z,36.50
2018-04-06T11:56:23.966Z,37.10
2018-04-06T11:58:51.885Z,36.70
2018-04-06T12:01:19.850Z,35.60
2018-04-06T12:03:47.770Z,37.40
2018-04-06T12:06:15.935Z,36.10
2018-04-06T12:08:44.230Z,37.60
2018-04-06T12:11:12.152Z,37.30
2018-04-06T12:13:40.973Z,36.20
2018-04-06T12:16:08.969Z,36.90
2018-04-06T12:18:36.894Z,37.20
2018-04-06T12:21:04.730Z,36.00
2018-04-06T12:23:32.572Z,35.70
2018-04-06T12:26:00.450Z,35.20
2018-04-06T12:28:28.490Z,34.80
2018-04-06T12:30:56.389Z,35.50
2018-04-06T12:33:24.449Z,36.10
2018-04-06T12:35:52.409Z,37.20
2018-04-06T12:38:20.269Z,35.90
2018-04-06T12:40:48.090Z,36.00
2018-04-06T12:43:15.891Z,37.80
2018-04-06T12:45:43.750Z,37.80
2018-04-06T12:48:11.589Z,36.60
2018-04-06T12:50:40.147Z,35.60
2018-04-06T12:53:07.907Z,35.60
2018-04-06T12:55:35.791Z,35.60
2018-04-06T12:58:03.728Z,36.80
2018-04-06T13:00:31.561Z,36.70
2018-04-06T13:02:59.457Z,37.70
2018-04-06T13:05:27.369Z,36.80
2018-04-06T13:07:55.327Z,37.20
2018-04-06T13:10:23.268Z,37.90
2018-04-06T13:12:51.192Z,37.90
2018-04-06T13:15:19.107Z,37.70
2018-04-06T13:17:47.050Z,39.00
2018-04-06T13:22:46.968Z,39.50
2018-04-06T13:25:14.748Z,37.90
2018-04-06T13:27:43.009Z,38.30
2018-04-06T13:30:11.209Z,38.70
2018-04-06T13:32:39.208Z,37.90
2018-04-06T13:35:07.110Z,39.00
2018-04-06T13:37:35.267Z,38.60
2018-04-06T13:40:03.107Z,37.80
2018-04-06T13:42:31.007Z,38.60
2018-04-06T13:44:58.915Z,37.40
2018-04-06T13:47:26.834Z,38.30
2018-04-06T13:49:54.754Z,38.40
2018-04-06T13:52:22.693Z,37.80
2018-04-06T13:54:51.095Z,39.60
2018-04-06T13:57:18.991Z,39.60
2018-04-06T13:59:46.853Z,38.40
2018-04-06T14:02:14.691Z,39.50
2018-04-06T14:04:42.550Z,38.80
2018-04-06T14:07:10.370Z,39.20
2018-04-06T14:09:39.031Z,40.20
2018-04-06T14:12:07.531Z,39.70
2018-04-06T14:14:35.731Z,39.70
2018-04-06T14:17:03.966Z,41.10
2018-04-06T14:19:31.874Z,39.80
2018-04-06T14:21:59.792Z,40.60
2018-04-06T14:24:27.732Z,42.00
2018-04-06T14:26:55.655Z,40.50
2018-04-06T14:29:25.070Z,40.90
2018-04-06T14:31:52.948Z,42.80
2018-04-06T14:34:20.768Z,40.80
2018-04-06T14:36:48.626Z,41.00
2018-04-06T14:39:16.447Z,41.10
2018-04-06T14:41:44.387Z,41.70
2018-04-06T14:44:13.827Z,40.80
2018-04-06T14:46:41.686Z,41.70
2018-04-06T14:49:09.668Z,41.60
2018-04-06T14:51:37.527Z,42.70
2018-04-06T14:54:06.489Z,41.70
2018-04-06T14:56:34.487Z,41.80
2018-04-06T14:59:02.250Z,41.40
2018-04-06T15:01:30.170Z,41.60
2018-04-06T15:03:58.130Z,41.90
2018-04-06T15:06:26.016Z,42.10
2018-04-06T15:08:54.046Z,41.30
2018-04-06T15:11:21.886Z,42.50
2018-04-06T15:13:51.017Z,42.10
2018-04-06T15:16:19.048Z,42.30
2018-04-06T15:18:48.349Z,42.00
2018-04-06T15:21:16.327Z,42.00
2018-04-06T15:23:44.288Z,42.10
2018-04-06T15:26:12.206Z,42.00
2018-04-06T15:28:40.628Z,42.20
2018-04-06T15:31:08.508Z,40.70
2018-04-06T15:33:36.366Z,40.60
2018-04-06T15:36:04.370Z,41.10
2018-04-06T15:38:32.826Z,42.30
2018-04-06T15:41:00.750Z,41.80
2018-04-06T15:43:28.988Z,41.50
2018-04-06T15:45:56.812Z,41.20
2018-04-06T15:48:24.665Z,42.00
2018-04-06T15:50:52.454Z,42.50
2018-04-06T15:53:20.989Z,42.60
2018-04-06T15:55:48.971Z,42.60
2018-04-06T15:58:16.832Z,42.40
2018-04-06T16:00:44.735Z,42.50
2018-04-06T16:03:12.689Z,43.40
2018-04-06T16:05:40.688Z,43.50
2018-04-06T16:08:09.008Z,43.30
2018-04-06T16:10:37.089Z,43.00
2018-04-06T16:13:05.342Z,43.50
2018-04-06T16:15:33.171Z,43.10
2018-04-06T16:18:01.131Z,43.10
2018-04-06T16:20:29.051Z,42.90
2018-04-06T16:22:56.930Z,43.40
2018-04-06T16:25:24.868Z,42.80
2018-04-06T16:27:52.731Z,43.30
2018-04-06T16:30:20.531Z,43.60
2018-04-06T16:32:49.569Z,44.00
2018-04-06T16:35:17.459Z,44.00
2018-04-06T16:37:45.288Z,43.50
2018-04-06T16:40:13.211Z,43.70
2018-04-06T16:42:42.311Z,44.30
2018-04-06T16:45:11.950Z,44.20
2018-04-06T16:47:40.009Z,43.80
2018-04-06T16:50:07.867Z,43.60
2018-04-06T16:52:36.651Z,44.80
2018-04-06T16:55:04.351Z,44.50
2018-04-06T16:57:32.227Z,44.60
2018-04-06T17:00:00.092Z,44.30
2018-04-06T17:02:28.136Z,44.10
2018-04-06T17:04:55.975Z,44.40
2018-04-06T17:07:23.915Z,44.60
2018-04-06T17:09:51.792Z,45.00
2018-04-06T17:12:20.129Z,44.10
2018-04-06T17:14:48.929Z,45.00
2018-04-06T17:17:16.888Z,45.00
2018-04-06T17:19:44.943Z,47.80
2018-04-06T17:22:12.678Z,49.90
2018-04-06T17:24:41.751Z,51.60
2018-04-06T17:27:09.612Z,52.50
2018-04-06T17:29:37.473Z,53.50
2018-04-06T17:32:05.652Z,54.10
2018-04-06T17:34:34.212Z,55.20
2018-04-06T17:37:02.200Z,55.10
2018-04-06T17:39:30.193Z,55.40
2018-04-06T17:41:58.095Z,56.40
2018-04-06T17:44:26.011Z,56.20
2018-04-06T17:46:53.913Z,56.50
2018-04-06T17:49:21.542Z,56.70
2018-04-06T17:51:49.932Z,57.00
2018-04-06T17:54:18.093Z,57.20
2018-04-06T17:56:46.270Z,57.60
2018-04-06T17:59:15.033Z,57.80
2018-04-06T18:01:42.813Z,57.70
2018-04-06T18:04:13.487Z,58.00
2018-04-06T18:06:43.814Z,58.40
2018-04-06T18:09:12.769Z,58.70
2018-04-06T18:11:42.147Z,59.30
2018-04-06T18:14:10.967Z,58.90
2018-04-06T18:16:40.320Z,59.00
2018-04-06T18:19:09.575Z,59.00
2018-04-06T18:21:37.634Z,59.00
2018-04-06T18:24:06.411Z,58.90
2018-04-06T18:26:35.980Z,59.20
2018-04-06T18:29:04.410Z,59.10
2018-04-06T18:31:34.162Z,59.10
2018-04-06T18:34:03.834Z,58.80
2018-04-06T18:36:31.752Z,58.80
2018-04-06T18:39:01.024Z,59.70
2018-04-06T18:41:30.797Z,59.80
2018-04-06T18:43:59.849Z,60.80
2018-04-06T18:46:29.732Z,60.50
2018-04-06T18:48:58.010Z,60.70
2018-04-06T18:51:25.948Z,61.30
2018-04-06T18:53:54.156Z,61.40
2018-04-06T18:56:22.356Z,61.40
2018-04-06T18:58:51.488Z,61.40
2018-04-06T19:01:19.820Z,61.70
2018-04-06T19:03:50.112Z,62.00
2018-04-06T19:06:35.995Z,62.10
2018-04-06T19:09:07.273Z,61.80
2018-04-06T19:11:36.893Z,62.20
2018-04-06T19:14:09.052Z,63.20
2018-04-06T19:16:44.389Z,62.80
2018-04-06T19:19:30.406Z,62.80
2018-04-06T19:24:30.793Z,62.80
2018-04-06T19:27:00.934Z,62.70
2018-04-06T19:29:29.574Z,62.50
2018-04-06T19:31:58.044Z,62.60
2018-04-06T19:34:26.114Z,62.60
2018-04-06T19:39:25.936Z,62.90
2018-04-06T19:41:53.888Z,63.10
2018-04-06T19:44:23.068Z,63.90
2018-04-06T19:46:50.927Z,63.80
2018-04-06T19:49:18.812Z,64.20
2018-04-06T19:51:47.165Z,63.80
2018-04-06T19:54:15.891Z,63.90
2018-04-06T19:56:43.922Z,64.30
2018-04-06T19:59:17.883Z,64.30
2018-04-06T20:01:47.064Z,64.40
2018-04-06T20:04:18.163Z,64.40
2018-04-06T20:06:47.025Z,64.40
2018-04-06T20:09:23.931Z,64.30
2018-04-06T20:12:01.299Z,64.40
2018-04-06T20:14:29.733Z,64.40
2018-04-06T20:16:57.669Z,64.30
2018-04-06T20:22:27.807Z,64.80
2018-04-06T20:24:58.078Z,64.90
2018-04-06T20:30:35.908Z,65.00
2018-04-06T20:33:05.174Z,65.00
2018-04-06T20:35:33.073Z,64.90
2018-04-06T20:38:01.709Z,65.00
2018-04-06T20:40:29.493Z,64.70
2018-04-06T20:42:57.687Z,65.20
2018-04-06T20:45:25.523Z,66.30
2018-04-06T20:47:54.469Z,66.30
2018-04-06T20:50:22.927Z,65.00
2018-04-06T20:55:42.747Z,64.70
2018-04-06T20:58:33.422Z,64.70
2018-04-06T21:01:05.213Z,63.80
2018-04-06T21:03:33.448Z,64.20
2018-04-06T21:06:01.253Z,64.50
2018-04-06T21:08:30.269Z,63.50
2018-04-06T21:10:58.847Z,63.50
2018-04-06T21:13:26.896Z,63.80
2018-04-06T21:15:59.766Z,63.80
2018-04-06T21:18:29.956Z,63.70
2018-04-06T21:20:59.467Z,63.60
2018-04-06T21:23:28.411Z,63.50
2018-04-06T21:25:56.692Z,63.50
2018-04-06T21:28:24.609Z,63.00
2018-04-06T21:30:53.048Z,63.30
2018-04-06T21:33:22.469Z,63.50
2018-04-06T21:35:53.730Z,63.60
2018-04-06T21:38:24.608Z,63.30
2018-04-06T21:40:53.650Z,63.40
2018-04-06T21:43:24.466Z,63.90
2018-04-06T21:46:04.534Z,63.90
2018-04-06T21:48:37.896Z,63.70
2018-04-06T21:51:08.526Z,63.90
2018-04-06T21:53:36.431Z,64.60
2018-04-06T21:56:04.387Z,64.90
2018-04-06T21:58:33.680Z,65.40
2018-04-06T22:01:01.446Z,65.40
2018-04-06T22:03:29.470Z,66.60
2018-04-06T22:05:57.328Z,66.40
2018-04-06T22:08:25.289Z,66.20
2018-04-06T22:10:53.127Z,66.70
2018-04-06T22:13:20.905Z,66.90
2018-04-06T22:15:48.613Z,67.70
2018-04-06T22:18:16.354Z,67.00
2018-04-06T22:20:44.088Z,66.80
2018-04-06T22:23:11.818Z,67.60
2018-04-06T22:25:39.566Z,68.60
2018-04-06T22:30:40.249Z,69.80
2018-04-06T22:33:08.571Z,70.30
2018-04-06T22:35:36.356Z,70.10
2018-04-06T22:38:04.145Z,69.20
2018-04-06T22:40:31.888Z,69.70
2018-04-06T22:43:00.657Z,69.70
2018-04-06T22:45:28.396Z,70.00
2018-04-06T22:47:57.060Z,70.80
2018-04-06T22:50:24.793Z,70.90
2018-04-06T22:52:52.552Z,70.10
2018-04-06T22:55:20.333Z,69.80
2018-04-06T22:57:48.033Z,70.10
2018-04-06T23:00:15.863Z,69.90
2018-04-06T23:02:43.670Z,70.00
2018-04-06T23:05:11.377Z,70.30
2018-04-06T23:07:39.168Z,70.40
2018-04-06T23:10:06.908Z,70.40
2018-04-06T23:12:34.662Z,71.40
2018-04-06T23:15:02.348Z,72.10
2018-04-06T23:17:30.079Z,71.40
2018-04-06T23:19:57.847Z,71.00
2018-04-06T23:22:25.547Z,72.30
2018-04-06T23:24:53.251Z,72.70
2018-04-06T23:27:28.840Z,71.90
2018-04-06T23:29:56.546Z,72.10
2018-04-06T23:32:24.347Z,71.80
2018-04-06T23:34:52.069Z,71.80
2018-04-06T23:37:20.588Z,72.20
2018-04-06T23:39:48.407Z,72.00
2018-04-06T23:42:16.127Z,72.90
2018-04-06T23:44:43.846Z,72.80
2018-04-06T23:47:11.576Z,72.90
2018-04-06T23:49:39.327Z,71.80
2018-04-06T23:52:07.087Z,72.20
2018-04-06T23:54:34.807Z,72.50
2018-04-06T23:57:02.547Z,72.50
2018-04-06T23:59:31.087Z,72.80
